Time;durP1;ratioP1;P1;durP2;ratioP2;P2;SDS_P1;SDS_P2;PMS_P1;PMS_P2;Temp;Humidity;BMP_temperature;BMP_pressure;BME280_temperature;BME280_humidity;BME280_pressure;Samples;Min_cycle;Max_cycle;Signal;HPM_P1;HPM_P2
2022/04/01 00:00:11;;;;;;;39.08;8.10;;;;;;;4.70;72.88;99292.81;6227335;22;20427;-78
2022/04/01 00:02:38;;;;;;;49.42;10.82;;;;;;;4.60;73.22;99274.81;6202228;22;20020;-78
2022/04/01 00:05:06;;;;;;;51.33;10.98;;;;;;;4.69;73.17;99264.63;6279808;22;20030;-79
2022/04/01 00:07:35;;;;;;;36.30;9.07;;;;;;;4.74;72.72;99241.38;6279842;22;20058;-78
2022/04/01 00:10:03;;;;;;;50.53;10.90;;;;;;;4.62;72.95;99222.63;6227348;22;20023;-79
2022/04/01 00:12:29;;;;;;;49.40;9.15;;;;;;;4.67;73.17;99229.47;6279858;22;20061;-79
2022/04/01 00:14:56;;;;;;;34.83;8.55;;;;;;;4.60;73.27;99248.34;6227236;22;20456;-79
2022/04/01 00:17:21;;;;;;;39.78;9.13;;;;;;;4.57;73.21;99261.75;6252698;22;20073;-78
2022/04/01 00:19:47;;;;;;;34.60;9.00;;;;;;;4.52;73.92;99253.22;6279923;22;20016;-78
2022/04/01 00:22:13;;;;;;;35.35;8.25;;;;;;;4.53;73.83;99220.50;6253190;22;20019;-78
2022/04/01 00:24:39;;;;;;;37.97;8.35;;;;;;;4.50;74.16;99196.00;6279889;22;20466;-78
2022/04/01 00:27:05;;;;;;;30.95;8.40;;;;;;;4.55;73.98;99205.41;6279462;22;20023;-78
2022/04/01 00:29:31;;;;;;;39.85;8.00;;;;;;;4.52;74.25;99202.94;6279504;22;20015;-79
2022/04/01 00:32:00;;;;;;;53.10;8.13;;;;;;;4.38;74.85;99189.63;6227119;22;20026;-79
2022/04/01 00:34:28;;;;;;;38.55;7.50;;;;;;;4.39;75.11;99200.13;6252602;22;20028;-78
2022/04/01 00:36:55;;;;;;;23.25;7.28;;;;;;;4.37;75.56;99209.09;6252602;22;20020;-78
2022/04/01 00:39:23;;;;;;;34.63;7.75;;;;;;;4.43;75.03;99211.38;6277824;22;20020;-78
2022/04/01 00:41:50;;;;;;;39.92;7.03;;;;;;;4.42;75.21;99190.31;6252582;22;20033;-78
2022/04/01 00:44:28;;;;;;;40.28;8.43;;;;;;;4.40;75.42;99193.06;6252523;22;20034;-77
2022/04/01 00:46:56;;;;;;;34.92;9.18;;;;;;;4.43;75.33;99207.88;6251833;22;20019;-79
2022/04/01 00:49:24;;;;;;;37.92;8.07;;;;;;;4.37;75.67;99227.63;6250919;22;20016;-77
2022/04/01 00:51:52;;;;;;;38.20;7.22;;;;;;;4.40;76.03;99253.94;6250809;22;20015;-78
2022/04/01 00:54:18;;;;;;;40.75;8.15;;;;;;;4.33;76.32;99247.25;6277644;22;20443;-77
2022/04/01 00:56:45;;;;;;;43.95;9.10;;;;;;;4.44;75.93;99234.28;6250736;22;20015;-77
2022/04/01 00:59:12;;;;;;;31.88;7.03;;;;;;;4.46;75.88;99237.69;6250986;22;20016;-78
2022/04/01 01:01:40;;;;;;;35.92;7.45;;;;;;;4.45;75.70;99214.81;6250821;22;20015;-79
2022/04/01 01:04:12;;;;;;;36.42;11.13;;;;;;;4.54;75.07;99208.13;6250546;22;20475;-77
2022/04/01 01:06:43;;;;;;;37.40;8.65;;;;;;;4.50;75.21;99202.16;6250409;22;20027;-78
2022/04/01 01:09:10;;;;;;;34.15;8.27;;;;;;;4.51;75.02;99187.97;6225477;22;20026;-77
2022/04/01 01:11:36;;;;;;;41.65;9.82;;;;;;;4.52;74.99;99183.56;6250821;22;20020;-78
2022/04/01 01:14:04;;;;;;;24.45;7.95;;;;;;;4.44;75.31;99181.34;6277431;22;20012;-77
2022/04/01 01:16:31;;;;;;;31.75;8.60;;;;;;;4.39;75.40;99175.44;6250633;22;20061;-79
2022/04/01 01:19:07;;;;;;;58.53;10.23;;;;;;;4.39;75.28;99175.44;6250591;22;20016;-77
2022/04/01 01:21:34;;;;;;;52.33;10.35;;;;;;;4.38;75.60;99166.66;6281867;22;20062;-79
2022/04/01 01:24:05;;;;;;;39.45;10.07;;;;;;;4.49;75.12;99167.84;6272404;22;20071;-79
2022/04/01 01:26:33;;;;;;;25.08;9.70;;;;;;;4.39;75.58;99170.16;6263049;22;20520;-79
2022/04/01 01:29:00;;;;;;;46.10;10.57;;;;;;;4.45;75.42;99166.31;6250895;22;20019;-78
2022/04/01 01:31:27;;;;;;;46.88;11.95;;;;;;;4.42;75.52;99172.63;6200294;22;20028;-79
2022/04/01 01:33:57;;;;;;;48.40;10.60;;;;;;;4.42;75.37;99183.22;6250762;22;20020;-77
2022/04/01 01:36:27;;;;;;;40.13;11.38;;;;;;;4.41;75.61;99181.53;6250712;22;20098;-79
2022/04/01 01:38:53;;;;;;;48.35;10.80;;;;;;;4.35;75.36;99184.50;6277235;22;20026;-77
2022/04/01 01:41:20;;;;;;;42.00;10.95;;;;;;;4.41;75.50;99208.00;6250426;22;20023;-78
2022/04/01 01:43:46;;;;;;;41.55;12.02;;;;;;;4.38;75.92;99218.75;6225045;22;20028;-77
2022/04/01 01:46:13;;;;;;;48.33;13.18;;;;;;;4.36;75.76;99210.91;6225843;22;20039;-78
2022/04/01 01:48:39;;;;;;;40.42;12.70;;;;;;;4.42;75.79;99214.97;6267268;22;20462;-78
2022/04/01 01:56:52;;;;;;;54.17;12.77;;;;;;;4.46;74.98;99224.44;6188015;23;20055;-77
2022/04/01 01:59:18;;;;;;;48.65;12.85;;;;;;;4.43;75.16;99221.97;6255862;22;20094;-78
2022/04/01 02:01:45;;;;;;;37.47;13.30;;;;;;;4.43;75.21;99237.00;6251431;22;20046;-78
2022/04/01 02:04:11;;;;;;;57.42;12.02;;;;;;;4.44;75.13;99228.13;6260021;22;20027;-79
2022/04/01 02:06:38;;;;;;;31.00;10.45;;;;;;;4.49;75.10;99231.38;6279889;22;20108;-80
2022/04/01 02:09:07;;;;;;;44.47;10.20;;;;;;;4.48;74.75;99219.94;6251097;22;20015;-78
2022/04/01 02:11:33;;;;;;;38.20;8.63;;;;;;;4.53;74.76;99215.22;6224611;22;20042;-79
2022/04/01 02:13:59;;;;;;;42.08;8.50;;;;;;;4.59;74.56;99220.16;6275614;22;20016;-78
2022/04/01 02:16:25;;;;;;;47.78;8.45;;;;;;;4.56;74.24;99211.56;6276928;22;20011;-78
2022/04/01 02:18:51;;;;;;;41.55;8.77;;;;;;;4.67;73.96;99218.88;6275868;22;20016;-79
2022/04/01 02:21:17;;;;;;;43.30;8.35;;;;;;;4.58;73.92;99231.69;6275183;22;20030;-79
2022/04/01 02:23:46;;;;;;;32.08;8.55;;;;;;;4.61;74.09;99228.88;6302151;22;20018;-78
2022/04/01 02:26:14;;;;;;;28.67;6.93;;;;;;;4.59;73.67;99233.41;6301437;22;20016;-77
2022/04/01 02:28:42;;;;;;;31.10;7.00;;;;;;;4.61;74.07;99226.22;6301531;22;20020;-78
2022/04/01 02:31:11;;;;;;;31.33;6.45;;;;;;;4.65;73.83;99226.03;6275530;22;20015;-77
2022/04/01 02:33:56;;;;;;;36.88;7.93;;;;;;;4.65;73.81;99233.97;6253485;22;20078;-78
2022/04/01 02:36:22;;;;;;;36.33;7.60;;;;;;;4.63;73.94;99234.94;6250114;22;20015;-79
2022/04/01 02:38:50;;;;;;;32.20;7.00;;;;;;;4.64;73.91;99225.19;6275313;22;20012;-78
2022/04/01 02:41:18;;;;;;;46.45;6.93;;;;;;;4.69;73.72;99232.88;6249542;22;20023;-79
2022/04/01 02:43:44;;;;;;;24.65;6.75;;;;;;;4.78;73.28;99237.66;6275109;22;20019;-79
2022/04/01 02:46:10;;;;;;;26.75;6.47;;;;;;;4.81;73.26;99226.84;6274801;22;20018;-79
2022/04/01 02:48:48;;;;;;;36.53;6.95;;;;;;;4.87;73.49;99215.91;6249252;22;20027;-80
2022/04/01 02:51:37;;;;;;;31.50;6.53;;;;;;;4.93;72.58;99210.25;6301003;22;20028;-77
2022/04/01 02:54:11;;;;;;;33.47;5.95;;;;;;;4.97;72.42;99222.38;6276920;22;20090;-78
2022/04/01 02:56:39;;;;;;;52.05;6.28;;;;;;;5.36;75.45;99218.28;6249643;22;20019;-83
2022/04/01 02:59:09;;;;;;;31.42;6.70;;;;;;;5.55;72.26;99216.22;6274657;22;20333;-76
2022/04/01 03:01:38;;;;;;;32.72;7.55;;;;;;;5.55;70.67;99207.41;6275184;22;20086;-79
2022/04/01 03:04:09;;;;;;;34.08;5.95;;;;;;;5.59;70.49;99225.69;6276269;22;20098;-76
2022/04/01 03:06:40;;;;;;;33.00;6.60;;;;;;;5.53;70.35;99226.06;6249874;22;20390;-81
2022/04/01 03:09:10;;;;;;;27.27;5.53;;;;;;;5.55;70.10;99226.81;6249682;22;20130;-78
2022/04/01 03:11:39;;;;;;;42.97;6.72;;;;;;;5.58;70.06;99223.97;6250501;22;20027;-76
2022/04/01 03:14:11;;;;;;;24.00;5.90;;;;;;;5.67;69.55;99227.00;6274939;22;20026;-79
2022/04/01 03:16:56;;;;;;;41.72;6.15;;;;;;;5.63;69.88;99222.84;6274742;22;20030;-79
2022/04/01 03:19:22;;;;;;;25.77;5.35;;;;;;;6.02;74.20;99238.13;6275823;22;20050;-84
2022/04/01 03:21:48;;;;;;;27.63;5.35;;;;;;;6.32;69.93;99245.94;6274849;22;20054;-79
2022/04/01 03:24:14;;;;;;;29.33;5.65;;;;;;;6.23;67.75;99230.59;6275523;22;20352;-76
2022/04/01 03:26:41;;;;;;;30.02;5.45;;;;;;;6.04;68.29;99234.41;6300730;22;20020;-77
2022/04/01 03:29:08;;;;;;;22.10;5.57;;;;;;;6.57;73.93;99239.88;6249507;22;20348;-87
2022/04/01 03:31:35;;;;;;;16.77;5.20;;;;;;;7.31;70.91;99243.81;6300832;22;20016;-77
2022/04/01 03:34:04;;;;;;;28.50;6.00;;;;;;;7.12;65.32;99222.09;6274829;22;20037;-78
2022/04/01 03:36:31;;;;;;;35.95;6.68;;;;;;;7.01;65.33;99234.28;6300448;22;20020;-80
2022/04/01 03:38:57;;;;;;;37.60;6.68;;;;;;;6.82;65.20;99229.34;6276580;22;20070;-84
2022/04/01 03:41:36;;;;;;;33.40;5.90;;;;;;;6.70;65.49;99240.78;6300893;22;20024;-76
2022/04/01 03:44:03;;;;;;;38.33;6.95;;;;;;;6.67;65.77;99229.50;6274314;22;20364;-78
2022/04/01 03:46:49;;;;;;;49.75;6.78;;;;;;;6.56;66.19;99222.25;6273595;22;20024;-81
2022/04/01 03:49:23;;;;;;;27.60;5.85;;;;;;;6.66;66.40;99215.38;6248898;22;20435;-83
2022/04/01 03:51:51;;;;;;;35.08;6.50;;;;;;;6.75;66.15;99201.47;6276632;22;20043;-80
2022/04/01 03:54:18;;;;;;;27.45;6.60;;;;;;;6.90;65.79;99212.03;6300415;22;20047;-80
2022/04/01 03:57:03;;;;;;;32.40;6.00;;;;;;;6.99;65.28;99211.41;6275945;22;20022;-80
2022/04/01 03:59:52;;;;;;;40.33;6.82;;;;;;;7.15;65.13;99206.78;6297577;22;20466;-81
2022/04/01 04:02:53;;;;;;;31.55;7.90;;;;;;;7.27;64.37;99213.91;6276680;22;20402;-80
2022/04/01 04:05:27;;;;;;;32.85;6.90;;;;;;;7.25;64.36;99204.31;6248950;22;20019;-78
2022/04/01 04:07:55;;;;;;;45.40;7.65;;;;;;;7.27;63.93;99203.28;6274960;22;20137;-78
2022/04/01 04:10:27;;;;;;;24.98;7.00;;;;;;;7.28;64.21;99193.50;6275525;22;20375;-79
2022/04/01 04:13:25;;;;;;;38.35;6.35;;;;;;;7.41;63.28;99205.00;6275032;22;20023;-79
2022/04/01 04:15:51;;;;;;;44.03;7.25;;;;;;;7.30;63.76;99207.53;6249376;22;20015;-79
2022/04/01 04:18:20;;;;;;;26.05;6.88;;;;;;;7.44;63.51;99202.09;6274926;22;20070;-79
2022/04/01 04:21:15;;;;;;;32.67;7.18;;;;;;;7.31;63.32;99203.91;6276316;22;20019;-80
2022/04/01 04:23:47;;;;;;;34.60;7.10;;;;;;;7.11;63.81;99192.00;6276420;22;20024;-79
2022/04/01 04:26:38;;;;;;;28.08;7.47;;;;;;;7.22;63.44;99215.16;6276404;22;20019;-79
2022/04/01 04:29:10;;;;;;;33.00;7.60;;;;;;;7.34;63.39;99206.38;6263336;22;20020;-80
2022/04/01 04:31:52;;;;;;;33.80;6.60;;;;;;;7.33;63.04;99196.66;6252419;22;20020;-80
2022/04/01 04:34:22;;;;;;;29.40;7.10;;;;;;;7.43;62.86;99200.41;6276523;22;20016;-78
2022/04/01 04:36:53;;;;;;;33.22;7.35;;;;;;;7.37;63.05;99200.84;6276276;22;20019;-79
2022/04/01 04:39:30;;;;;;;32.10;6.55;;;;;;;7.43;62.96;99203.06;6302376;22;20020;-82
2022/04/01 04:41:56;;;;;;;38.97;7.35;;;;;;;7.50;62.94;99214.97;6276607;22;20030;-80
2022/04/01 04:44:29;;;;;;;31.15;7.63;;;;;;;7.59;62.85;99218.81;6276462;22;20106;-81
2022/04/01 04:47:04;;;;;;;31.63;7.97;;;;;;;7.77;62.55;99214.00;6276610;22;20019;-80
2022/04/01 04:49:31;;;;;;;41.72;7.88;;;;;;;7.82;62.09;99217.19;6276753;22;20024;-81
2022/04/01 04:51:59;;;;;;;39.92;8.15;;;;;;;7.98;62.03;99217.81;6287432;22;20069;-80
2022/04/01 04:54:33;;;;;;;37.42;8.93;;;;;;;8.24;61.42;99220.41;6314908;22;20015;-81
2022/04/01 04:57:22;;;;;;;33.80;7.95;;;;;;;8.35;60.34;99212.50;6243956;22;20042;-81
2022/04/01 04:59:52;;;;;;;23.77;7.70;;;;;;;8.36;59.97;99218.69;6291351;22;20027;-80
2022/04/01 05:02:57;;;;;;;27.80;7.32;;;;;;;8.30;59.98;99224.44;6255950;22;20043;-82
2022/04/01 05:05:29;;;;;;;34.35;8.27;;;;;;;8.30;60.16;99227.94;6251192;22;20018;-80
2022/04/01 05:08:19;;;;;;;32.72;7.35;;;;;;;8.32;60.03;99228.69;6276498;22;20015;-78
2022/04/01 05:11:11;;;;;;;26.52;7.55;;;;;;;8.34;60.15;99229.41;6272225;22;20463;-79
2022/04/01 05:13:58;;;;;;;36.33;9.52;;;;;;;8.31;59.91;99226.97;6277469;22;20016;-80
2022/04/01 05:16:35;;;;;;;22.40;8.32;;;;;;;8.42;59.64;99218.25;6276205;22;20016;-81
2022/04/01 05:19:10;;;;;;;31.77;8.02;;;;;;;8.43;59.46;99210.16;6276547;22;20024;-81
2022/04/01 05:22:00;;;;;;;31.55;7.82;;;;;;;8.65;59.08;99211.22;6276446;22;20016;-79
2022/04/01 05:25:04;;;;;;;34.03;8.00;;;;;;;8.64;58.76;99212.19;6250597;22;20020;-81
2022/04/01 05:27:35;;;;;;;27.50;7.97;;;;;;;8.67;58.61;99217.28;6184751;22;20072;-75
2022/04/01 05:30:29;;;;;;;34.20;8.10;;;;;;;8.64;58.67;99241.50;6276909;22;20011;-78
2022/04/01 05:33:08;;;;;;;26.50;7.70;;;;;;;8.57;59.21;99245.56;6250222;22;20020;-79
2022/04/01 05:35:38;;;;;;;25.38;7.95;;;;;;;8.52;59.10;99244.09;6302055;22;20094;-79
2022/04/01 05:38:10;;;;;;;21.60;6.63;;;;;;;8.47;59.18;99237.44;6301797;22;20467;-80
2022/04/01 05:40:38;;;;;;;26.23;7.65;;;;;;;8.41;59.03;99228.06;6250437;22;20016;-77
2022/04/01 05:43:06;;;;;;;27.60;7.28;;;;;;;8.35;58.99;99236.47;6301279;22;20468;-78
2022/04/01 05:45:35;;;;;;;28.73;7.78;;;;;;;8.28;59.48;99243.19;6277271;22;20012;-78
2022/04/01 05:48:05;;;;;;;30.77;8.20;;;;;;;8.41;59.35;99243.19;6275599;22;20023;-78
2022/04/01 05:50:32;;;;;;;35.47;8.32;;;;;;;8.46;59.41;99257.00;6250342;22;20542;-78
2022/04/01 05:53:02;;;;;;;29.08;8.15;;;;;;;8.59;58.95;99246.31;6250158;22;20094;-80
2022/04/01 05:55:31;;;;;;;21.92;8.85;;;;;;;8.63;58.61;99245.13;6275782;22;20046;-79
2022/04/01 05:57:56;;;;;;;33.15;7.45;;;;;;;8.69;58.71;99247.34;6248866;22;20351;-82
2022/04/01 06:00:23;;;;;;;25.40;7.63;;;;;;;8.80;58.32;99242.09;6249920;22;20038;-79
2022/04/01 06:03:13;;;;;;;26.80;8.27;;;;;;;8.85;57.75;99236.41;6274252;22;20513;-77
2022/04/01 06:05:54;;;;;;;29.70;7.65;;;;;;;8.86;57.95;99232.78;6224740;22;20023;-78
2022/04/01 06:08:56;;;;;;;30.08;8.10;;;;;;;9.11;57.63;99211.28;6249654;22;20054;-78
2022/04/01 06:12:01;;;;;;;21.30;8.02;;;;;;;9.18;58.09;99217.03;6198083;22;20050;-75
2022/04/01 06:14:59;;;;;;;27.60;9.10;;;;;;;9.42;56.71;99231.13;6296862;22;20019;-75
2022/04/01 06:17:57;;;;;;;30.95;8.32;;;;;;;9.41;56.72;99210.75;6250423;22;20019;-75
2022/04/01 06:20:26;;;;;;;31.33;8.30;;;;;;;9.57;56.10;99212.22;6275480;22;20015;-75
2022/04/01 06:23:00;;;;;;;28.83;6.93;;;;;;;9.67;56.42;99218.56;6275105;22;20516;-76
2022/04/01 06:25:31;;;;;;;29.05;8.13;;;;;;;9.82;55.51;99233.38;6276550;22;20026;-77
2022/04/01 06:28:16;;;;;;;25.15;7.30;;;;;;;9.96;54.81;99230.44;6249225;22;20016;-77
2022/04/01 06:30:44;;;;;;;30.35;8.15;;;;;;;9.83;55.13;99224.38;6300562;22;20317;-76
2022/04/01 06:33:19;;;;;;;28.33;7.32;;;;;;;9.62;55.16;99210.03;6248546;22;20020;-78
2022/04/01 06:36:50;;;;;;;28.65;7.30;;;;;;;9.38;55.51;99208.31;6157598;23;20020;-76
2022/04/01 06:40:01;;;;;;;22.40;7.43;;;;;;;9.70;55.18;99223.63;6182615;23;20024;-77
2022/04/01 06:42:37;;;;;;;36.35;7.30;;;;;;;9.74;55.17;99209.06;6214697;22;20016;-77
2022/04/01 06:45:35;;;;;;;22.52;6.85;;;;;;;9.72;54.84;99216.38;6226222;22;20106;-78
2022/04/01 06:48:20;;;;;;;32.83;7.85;;;;;;;9.32;55.68;99218.59;6273375;22;20021;-77
2022/04/01 06:51:05;;;;;;;30.95;7.07;;;;;;;9.10;56.61;99238.06;6275505;22;20489;-76
2022/04/01 06:53:49;;;;;;;21.63;7.30;;;;;;;9.20;56.67;99239.06;6276421;22;20015;-76
2022/04/01 06:56:33;;;;;;;27.55;7.40;;;;;;;9.20;56.23;99231.91;6274853;22;20012;-76
2022/04/01 06:58:59;;;;;;;22.50;7.25;;;;;;;9.18;56.57;99215.19;6274767;22;20019;-76
2022/04/01 07:01:26;;;;;;;26.52;7.95;;;;;;;9.30;56.56;99217.91;6300540;22;20036;-77
2022/04/01 07:03:53;;;;;;;29.88;8.32;;;;;;;9.06;56.96;99233.94;6275194;22;20398;-77
2022/04/01 07:06:20;;;;;;;42.33;7.70;;;;;;;8.95;57.29;99235.59;6274076;22;20491;-75
2022/04/01 07:08:47;;;;;;;25.85;7.75;;;;;;;8.97;57.24;99225.66;6274593;22;20478;-78
2022/04/01 07:11:16;;;;;;;35.60;7.32;;;;;;;9.00;57.03;99219.25;6274280;22;20137;-76
2022/04/01 07:13:42;;;;;;;21.25;7.50;;;;;;;8.88;57.08;99210.38;6274316;22;20355;-77
2022/04/01 07:16:10;;;;;;;29.98;6.63;;;;;;;8.93;57.18;99221.53;6274193;22;20029;-76
2022/04/01 07:18:37;;;;;;;18.08;7.70;;;;;;;8.89;57.30;99225.41;6274043;22;20102;-78
2022/04/01 07:21:04;;;;;;;22.90;8.80;;;;;;;9.06;62.61;99228.59;6300539;22;20121;-77
2022/04/01 07:23:30;;;;;;;27.30;7.10;;;;;;;9.91;62.36;99218.44;6274329;22;20015;-77
2022/04/01 07:25:56;;;;;;;29.40;6.85;;;;;;;9.60;55.72;99222.69;6275912;22;20019;-80
2022/04/01 07:28:22;;;;;;;20.17;8.45;;;;;;;9.54;56.10;99217.81;6248614;22;20106;-79
2022/04/01 07:30:47;;;;;;;31.17;7.57;;;;;;;9.30;56.00;99229.41;6275211;22;20108;-79
2022/04/01 07:33:13;;;;;;;29.42;7.88;;;;;;;9.37;56.46;99221.78;6275412;22;20103;-80
2022/04/01 07:35:39;;;;;;;28.08;7.10;;;;;;;9.53;55.43;99214.28;6273605;22;20027;-77
2022/04/01 07:38:05;;;;;;;25.15;8.20;;;;;;;9.72;61.22;99195.03;6275719;22;20020;-82
2022/04/01 07:40:32;;;;;;;25.08;7.85;;;;;;;9.57;55.40;99196.22;6275448;22;20505;-78
2022/04/01 07:42:58;;;;;;;28.50;7.80;;;;;;;9.49;55.47;99220.84;6274867;22;20027;-79
2022/04/01 07:45:24;;;;;;;31.13;7.55;;;;;;;9.22;56.00;99218.47;6275925;22;20027;-80
2022/04/01 07:47:52;;;;;;;32.42;8.07;;;;;;;9.21;56.10;99211.44;6248731;22;20042;-80
2022/04/01 07:50:20;;;;;;;28.73;8.82;;;;;;;8.99;56.79;99223.75;6274287;22;20386;-79
2022/04/01 07:52:46;;;;;;;21.83;7.55;;;;;;;8.91;57.11;99226.16;6274335;22;20463;-79
2022/04/01 07:55:15;;;;;;;22.17;7.55;;;;;;;8.94;56.90;99231.22;6276660;22;20016;-81
2022/04/01 07:57:42;;;;;;;20.83;7.67;;;;;;;8.93;56.91;99234.84;6280920;22;20090;-81
2022/04/01 08:00:08;;;;;;;29.58;8.30;;;;;;;8.92;57.08;99243.84;6280157;22;20234;-81
2022/04/01 08:02:40;;;;;;;20.27;7.60;;;;;;;8.76;57.26;99232.59;6277502;22;20027;-83
2022/04/01 08:05:07;;;;;;;24.40;8.15;;;;;;;8.65;57.35;99236.06;6301978;22;20061;-80
2022/04/01 08:07:34;;;;;;;23.33;7.78;;;;;;;8.75;57.59;99234.41;6276827;22;20023;-83
2022/04/01 08:10:00;;;;;;;29.77;8.27;;;;;;;8.83;57.25;99235.66;6279267;22;20027;-82
2022/04/01 08:12:26;;;;;;;17.20;7.70;;;;;;;8.86;56.99;99251.44;6282049;22;20104;-80
2022/04/01 08:14:52;;;;;;;26.88;7.93;;;;;;;8.90;57.06;99251.06;6279495;22;20019;-80
2022/04/01 08:17:17;;;;;;;20.67;8.15;;;;;;;8.92;56.84;99251.81;6253907;22;20041;-82
2022/04/01 08:19:44;;;;;;;39.25;8.50;;;;;;;8.89;56.68;99249.38;6257447;22;20020;-82
2022/04/01 08:22:10;;;;;;;26.70;7.15;;;;;;;8.60;57.36;99254.19;6279561;22;20019;-82
2022/04/01 08:24:37;;;;;;;32.15;9.20;;;;;;;8.56;57.52;99249.22;6277027;22;20023;-80
2022/04/01 08:27:03;;;;;;;30.15;8.52;;;;;;;8.63;57.62;99253.97;6276165;22;20459;-81
2022/04/01 08:29:30;;;;;;;23.20;8.32;;;;;;;8.50;57.74;99245.19;6278209;22;20047;-79
2022/04/01 08:31:57;;;;;;;29.00;8.30;;;;;;;8.36;57.83;99238.16;6251198;22;20069;-80
2022/04/01 08:34:23;;;;;;;14.02;7.28;;;;;;;8.24;58.32;99241.72;6277978;22;20016;-82
2022/04/01 08:36:49;;;;;;;25.88;9.75;;;;;;;8.24;58.71;99244.38;6251218;22;20090;-78
2022/04/01 08:39:16;;;;;;;23.45;8.57;;;;;;;8.44;58.04;99242.97;6290294;22;20035;-82
2022/04/01 08:41:42;;;;;;;26.50;7.78;;;;;;;8.38;57.99;99260.22;6298502;22;20046;-81
2022/04/01 08:44:09;;;;;;;25.10;8.43;;;;;;;8.43;58.15;99257.25;6281838;22;20494;-80
2022/04/01 08:46:35;;;;;;;22.27;7.15;;;;;;;8.32;58.45;99252.66;6251654;22;20043;-82
2022/04/01 08:49:02;;;;;;;29.13;8.18;;;;;;;8.35;58.29;99249.78;6276965;22;20042;-81
2022/04/01 08:51:30;;;;;;;28.10;8.30;;;;;;;8.48;57.70;99255.94;6276567;22;20026;-81
2022/04/01 08:53:56;;;;;;;25.73;7.90;;;;;;;8.31;58.35;99258.09;6250604;22;20039;-82
2022/04/01 08:56:23;;;;;;;21.75;9.30;;;;;;;8.22;58.48;99265.78;6250406;22;20012;-81
2022/04/01 08:58:49;;;;;;;32.70;8.77;;;;;;;8.15;58.78;99279.66;6276556;22;20026;-81
2022/04/01 09:01:16;;;;;;;26.95;7.93;;;;;;;8.09;58.87;99296.91;6250273;22;20090;-81
2022/04/01 09:03:43;;;;;;;18.08;8.38;;;;;;;8.18;58.93;99295.41;6277463;22;20012;-82
2022/04/01 09:06:09;;;;;;;22.92;8.00;;;;;;;8.43;58.20;99322.03;6277610;22;20020;-81
2022/04/01 09:08:41;;;;;;;25.90;8.85;;;;;;;8.37;57.73;99319.78;6277049;22;20102;-84
2022/04/01 09:11:18;;;;;;;24.60;8.30;;;;;;;8.44;57.75;99310.41;6250506;22;20031;-81
2022/04/01 09:13:47;;;;;;;21.98;7.57;;;;;;;8.41;57.76;99309.78;6301549;22;20485;-80
2022/04/01 09:16:22;;;;;;;16.60;7.43;;;;;;;8.35;58.12;99308.38;6277544;22;20016;-82
2022/04/01 09:18:48;;;;;;;22.45;8.40;;;;;;;8.49;58.09;99308.25;6250912;22;20024;-80
2022/04/01 09:21:14;;;;;;;29.48;8.43;;;;;;;8.51;57.82;99313.50;6276068;22;20011;-81
2022/04/01 09:23:46;;;;;;;22.85;7.85;;;;;;;8.56;57.62;99307.81;6301220;22;20387;-82
2022/04/01 09:26:12;;;;;;;26.48;9.18;;;;;;;8.74;57.78;99309.16;6276028;22;20024;-81
2022/04/01 09:28:41;;;;;;;23.58;7.97;;;;;;;8.80;57.10;99305.19;6275955;22;20032;-81
2022/04/01 09:31:12;;;;;;;33.37;9.13;;;;;;;8.93;56.62;99314.84;6275940;22;20012;-80
2022/04/01 09:33:50;;;;;;;27.20;7.95;;;;;;;8.82;56.84;99317.44;6250662;22;20610;-82
2022/04/01 09:36:33;;;;;;;19.27;8.80;;;;;;;8.90;56.77;99316.88;6277885;22;20094;-81
2022/04/01 09:39:00;;;;;;;25.08;8.25;;;;;;;8.94;56.71;99316.53;6275700;22;20011;-81
2022/04/01 09:41:43;;;;;;;22.95;8.40;;;;;;;9.13;56.21;99332.00;6250075;22;20062;-82
2022/04/01 09:44:20;;;;;;;24.15;8.23;;;;;;;9.27;56.00;99325.66;6250523;22;20050;-81
2022/04/01 09:46:49;;;;;;;23.73;8.68;;;;;;;9.53;55.22;99323.69;6302075;22;20019;-81
2022/04/01 09:49:39;;;;;;;22.25;8.27;;;;;;;9.60;54.86;99318.75;6277145;22;20015;-81
2022/04/01 09:52:09;;;;;;;22.98;9.20;;;;;;;9.46;54.78;99312.63;6199641;22;20015;-81
2022/04/01 09:54:50;;;;;;;22.45;8.82;;;;;;;9.42;54.89;99316.50;6250124;22;20036;-81
2022/04/01 09:57:21;;;;;;;23.95;8.13;;;;;;;9.46;55.17;99333.13;6198696;22;20023;-81
2022/04/01 09:59:49;;;;;;;20.75;7.97;;;;;;;9.22;55.00;99318.00;6199476;22;20682;-81
2022/04/01 10:02:18;;;;;;;20.27;8.05;;;;;;;9.04;55.63;99326.53;6225675;22;20031;-84
2022/04/01 10:04:44;;;;;;;23.88;8.77;;;;;;;8.90;56.10;99347.03;6276797;22;20016;-84
2022/04/01 10:07:11;;;;;;;27.65;8.55;;;;;;;8.75;56.35;99348.16;6199256;22;20026;-80
2022/04/01 10:09:38;;;;;;;25.02;8.55;;;;;;;8.54;56.93;99329.25;6249967;22;20069;-81
2022/04/01 10:12:09;;;;;;;28.88;7.78;;;;;;;8.36;57.41;99341.19;6199424;22;20019;-80
2022/04/01 10:14:38;;;;;;;18.80;8.05;;;;;;;8.24;57.76;99317.13;6277427;22;20075;-79
2022/04/01 10:17:04;;;;;;;15.18;8.13;;;;;;;8.25;58.01;99333.97;6249523;22;20030;-80
2022/04/01 10:19:33;;;;;;;17.17;8.45;;;;;;;8.24;57.94;99332.25;6224494;22;20016;-80
2022/04/01 10:22:00;;;;;;;23.35;7.82;;;;;;;8.16;58.41;99342.56;6277054;22;20015;-80
2022/04/01 10:24:44;;;;;;;21.80;8.43;;;;;;;8.16;58.38;99334.59;6224342;22;20101;-80
2022/04/01 10:27:18;;;;;;;19.05;8.23;;;;;;;8.15;58.51;99341.72;6249288;22;20026;-81
2022/04/01 10:29:45;;;;;;;17.92;8.18;;;;;;;8.12;58.47;99338.44;6199304;22;20024;-80
2022/04/01 10:32:30;;;;;;;19.00;8.23;;;;;;;8.16;58.60;99340.78;6276219;22;20019;-80
2022/04/01 10:34:58;;;;;;;21.40;8.45;;;;;;;8.17;58.17;99338.97;6224303;22;20027;-83
2022/04/01 10:37:26;;;;;;;21.83;9.27;;;;;;;8.18;58.57;99332.69;6250420;22;20019;-83
2022/04/01 10:40:00;;;;;;;40.75;10.52;;;;;;;8.28;58.16;99331.09;6249462;22;20722;-81
2022/04/01 10:42:31;;;;;;;17.35;7.93;;;;;;;8.47;57.89;99334.16;6276917;22;20073;-84
2022/04/01 10:45:00;;;;;;;18.60;8.27;;;;;;;8.40;57.78;99332.06;6276638;22;20016;-82
2022/04/01 10:53:41;;;;;;;20.52;9.52;;;;;;;8.75;57.75;99333.00;6249043;22;20416;-81
2022/04/01 10:56:25;;;;;;;16.83;7.97;;;;;;;8.94;57.18;99327.19;6249006;22;20019;-81
2022/04/01 10:59:11;;;;;;;24.67;8.82;;;;;;;9.24;55.92;99317.88;6249457;22;20039;-80
2022/04/01 11:01:51;;;;;;;20.02;7.85;;;;;;;9.40;55.61;99320.25;6249845;22;20018;-81
2022/04/01 11:04:17;;;;;;;18.02;8.30;;;;;;;9.33;55.49;99306.53;6275067;22;20098;-80
2022/04/01 11:07:05;;;;;;;28.95;9.55;;;;;;;9.33;55.13;99317.22;6275382;22;20059;-81
2022/04/01 11:09:45;;;;;;;21.63;8.43;;;;;;;9.34;55.02;99318.06;6199095;22;20019;-81
2022/04/01 11:12:21;;;;;;;26.85;9.55;;;;;;;9.35;54.93;99301.06;6224204;22;20019;-80
2022/04/01 11:14:56;;;;;;;17.73;8.70;;;;;;;9.46;54.60;99309.97;6249122;22;20019;-81
2022/04/01 11:17:34;;;;;;;29.13;9.38;;;;;;;9.54;54.75;99303.19;6223728;22;20047;-79
2022/04/01 11:20:08;;;;;;;20.98;9.52;;;;;;;9.71;54.55;99310.78;6276468;22;20501;-79
2022/04/01 11:22:37;;;;;;;19.17;8.50;;;;;;;9.77;54.19;99299.59;6249816;22;20443;-81
2022/04/01 11:25:05;;;;;;;18.17;9.55;;;;;;;9.76;54.22;99292.56;6279488;22;20015;-81
2022/04/01 11:27:31;;;;;;;20.10;9.65;;;;;;;9.61;54.15;99299.09;6248681;22;20011;-80
2022/04/01 11:30:22;;;;;;;21.33;9.35;;;;;;;9.43;54.81;99318.19;6223829;22;20073;-80
2022/04/01 11:32:54;;;;;;;24.00;8.95;;;;;;;9.29;54.77;99314.88;6223952;22;20428;-80
2022/04/01 11:35:22;;;;;;;25.95;8.35;;;;;;;9.07;55.19;99321.81;6276195;22;20019;-80
2022/04/01 11:37:49;;;;;;;24.70;8.30;;;;;;;8.96;57.04;99303.09;6249589;22;20340;-78
2022/04/01 11:40:22;;;;;;;12.68;7.88;;;;;;;9.29;58.20;99318.41;6276511;22;20016;-82
2022/04/01 11:42:59;;;;;;;20.15;8.48;;;;;;;9.81;62.39;99316.22;6249146;22;20020;-81
2022/04/01 11:45:27;;;;;;;17.40;7.45;;;;;;;9.84;55.85;99311.50;6249160;22;20015;-76
2022/04/01 11:47:53;;;;;;;17.35;7.80;;;;;;;9.53;54.37;99312.19;6252512;22;20016;-77
2022/04/01 11:50:22;;;;;;;23.48;9.20;;;;;;;9.23;55.10;99321.53;6280515;22;20015;-84
2022/04/01 11:52:49;;;;;;;;;;;;;;;8.83;55.52;99295.13;6277251;22;20026;-81
2022/04/01 11:55:22;;;;;;;12.45;7.63;;;;;;;8.69;55.94;99311.31;6277256;22;19969;-81
2022/04/01 11:57:49;;;;;;;17.40;8.52;;;;;;;8.34;57.13;99322.63;6276980;22;20027;-79
2022/04/01 12:00:17;;;;;;;22.77;8.52;;;;;;;8.11;57.80;99318.09;6274514;22;20073;-81
2022/04/01 12:02:46;;;;;;;28.17;8.40;;;;;;;8.22;57.71;99342.16;6275857;22;20034;-84
2022/04/01 12:05:12;;;;;;;21.98;8.90;;;;;;;8.13;57.87;99326.84;6275808;22;20020;-82
2022/04/01 12:10:28;;;;;;;18.25;8.05;;;;;;;7.88;58.39;99317.03;6274439;22;20070;-83